createdAt,value
2023-02-14T00:01:28.211Z,16.48
2023-02-14T00:03:55.274Z,16.33
2023-02-14T00:06:24.826Z,16.63
2023-02-14T00:08:51.952Z,16.65
2023-02-14T00:11:21.755Z,16.83
2023-02-14T00:13:48.876Z,16.63
2023-02-14T00:16:16.427Z,17.20
2023-02-14T00:18:45.959Z,17.40
2023-02-14T00:21:13.325Z,15.93
2023-02-14T00:23:42.581Z,15.90
2023-02-14T00:26:16.246Z,16.23
2023-02-14T00:28:45.753Z,15.13
2023-02-14T00:31:13.268Z,16.25
2023-02-14T00:33:40.380Z,15.35
2023-02-14T00:36:10.655Z,15.70
2023-02-14T00:38:42.388Z,14.75
2023-02-14T00:41:09.754Z,14.68
2023-02-14T00:43:36.806Z,14.82
2023-02-14T00:46:06.834Z,16.13
2023-02-14T00:48:33.911Z,14.80
2023-02-14T00:51:03.721Z,15.73
2023-02-14T00:53:30.852Z,15.52
2023-02-14T00:55:58.168Z,15.00
2023-02-14T00:58:25.352Z,13.95
2023-02-14T01:00:55.211Z,15.40
2023-02-14T01:03:24.640Z,14.50
2023-02-14T01:05:52.214Z,15.60
2023-02-14T01:08:19.750Z,15.40
2023-02-14T01:10:49.584Z,15.63
2023-02-14T01:13:17.192Z,15.63
2023-02-14T01:15:51.458Z,14.32
2023-02-14T01:20:47.968Z,14.73
2023-02-14T01:23:15.049Z,13.93
2023-02-14T01:25:44.753Z,13.98
2023-02-14T01:28:11.833Z,14.57
2023-02-14T01:30:43.789Z,15.15
2023-02-14T01:33:10.881Z,15.57
2023-02-14T01:35:40.481Z,15.15
2023-02-14T01:38:10.019Z,15.82
2023-02-14T01:40:43.284Z,14.18
2023-02-14T01:43:15.910Z,15.50
2023-02-14T01:45:43.309Z,17.85
2023-02-14T01:48:13.085Z,16.35
2023-02-14T01:50:45.207Z,14.85
2023-02-14T01:53:26.291Z,14.90
2023-02-14T01:56:02.905Z,15.73
2023-02-14T01:58:33.863Z,14.75
2023-02-14T02:01:03.588Z,15.38
2023-02-14T02:03:51.333Z,15.25
2023-02-14T02:06:33.649Z,14.90
2023-02-14T02:09:18.923Z,14.48
2023-02-14T02:11:49.105Z,14.55
2023-02-14T02:14:21.010Z,15.50
2023-02-14T02:17:17.141Z,15.00
2023-02-14T02:20:12.998Z,16.20
2023-02-14T02:22:43.099Z,15.68
2023-02-14T02:25:37.644Z,16.20
2023-02-14T02:28:26.205Z,15.88
2023-02-14T02:31:11.644Z,15.45
2023-02-14T02:33:57.597Z,16.42
2023-02-14T02:36:39.265Z,15.85
2023-02-14T02:39:34.079Z,16.02
2023-02-14T02:42:06.817Z,15.10
2023-02-14T02:45:15.284Z,16.52
2023-02-14T02:47:54.334Z,16.70
2023-02-14T02:50:46.399Z,16.13
2023-02-14T02:53:19.319Z,17.25
2023-02-14T02:56:11.004Z,16.10
2023-02-14T02:59:01.947Z,16.95
2023-02-14T03:01:39.193Z,16.92
2023-02-14T03:04:10.381Z,18.77
2023-02-14T03:06:37.775Z,18.02
2023-02-14T03:09:30.662Z,17.95
2023-02-14T03:12:01.190Z,17.58
2023-02-14T03:15:11.500Z,18.30
2023-02-14T03:18:07.123Z,18.83
2023-02-14T03:20:46.503Z,19.20
2023-02-14T03:23:21.592Z,18.27
2023-02-14T03:26:27.057Z,18.50
2023-02-14T03:29:07.417Z,17.48
2023-02-14T03:31:38.092Z,18.45
2023-02-14T03:34:16.068Z,18.58
2023-02-14T03:36:52.723Z,18.10
2023-02-14T03:39:57.940Z,17.88
2023-02-14T03:42:33.844Z,19.00
2023-02-14T03:45:04.796Z,19.00
2023-02-14T03:47:40.970Z,18.95
2023-02-14T03:50:16.916Z,18.45
2023-02-14T03:52:49.643Z,18.27
2023-02-14T03:55:24.602Z,19.25
2023-02-14T03:58:15.985Z,19.05
2023-02-14T04:03:28.080Z,20.05
2023-02-14T04:05:55.598Z,19.55
2023-02-14T04:08:25.415Z,19.90
2023-02-14T04:10:53.949Z,18.52
2023-02-14T04:13:23.662Z,17.92
2023-02-14T04:15:51.143Z,19.08
2023-02-14T04:18:18.202Z,18.83
2023-02-14T04:20:45.583Z,18.83
2023-02-14T04:23:12.628Z,17.75
2023-02-14T04:25:40.048Z,18.92
2023-02-14T04:28:09.800Z,17.50
2023-02-14T04:30:37.363Z,18.13
2023-02-14T04:33:06.936Z,17.33
2023-02-14T04:35:35.436Z,16.80
2023-02-14T04:38:03.748Z,18.45
2023-02-14T04:40:31.256Z,19.30
2023-02-14T04:43:00.831Z,18.27
2023-02-14T04:45:30.470Z,18.92
2023-02-14T04:47:57.472Z,17.15
2023-02-14T04:50:27.106Z,16.42
2023-02-14T04:52:54.198Z,17.52
2023-02-14T04:55:21.573Z,17.67
2023-02-14T04:57:51.114Z,18.20
2023-02-14T05:00:19.087Z,16.92
2023-02-14T05:02:48.408Z,17.10
2023-02-14T05:05:18.228Z,17.70
2023-02-14T05:07:47.546Z,17.77
2023-02-14T05:10:15.215Z,16.92
2023-02-14T05:12:42.481Z,19.08
2023-02-14T05:15:12.285Z,17.15
2023-02-14T05:17:39.335Z,17.95
2023-02-14T05:20:07.759Z,18.85
2023-02-14T05:22:34.794Z,19.10
2023-02-14T05:25:02.277Z,19.52
2023-02-14T05:27:29.628Z,17.98
2023-02-14T05:29:59.364Z,18.88
2023-02-14T05:32:26.433Z,17.58
2023-02-14T05:34:53.768Z,17.13
2023-02-14T05:37:23.063Z,17.15
2023-02-14T05:39:52.720Z,19.27
2023-02-14T05:42:19.792Z,17.20
2023-02-14T05:44:47.308Z,18.30
2023-02-14T05:47:15.048Z,17.42
2023-02-14T05:49:44.915Z,18.75
2023-02-14T05:52:14.509Z,18.80
2023-02-14T05:54:41.863Z,19.00
2023-02-14T05:57:11.538Z,18.05
2023-02-14T05:59:38.893Z,17.35
2023-02-14T06:02:06.135Z,17.70
2023-02-14T06:04:33.611Z,17.65
2023-02-14T06:07:00.710Z,17.88
2023-02-14T06:09:28.100Z,16.92
2023-02-14T06:11:55.455Z,17.45
2023-02-14T06:14:22.823Z,17.50
2023-02-14T06:16:50.115Z,18.27
2023-02-14T06:19:17.620Z,16.88
2023-02-14T06:21:44.696Z,18.23
2023-02-14T06:24:12.222Z,17.35
2023-02-14T06:26:41.517Z,16.90
2023-02-14T06:29:08.925Z,16.88
2023-02-14T06:31:36.152Z,16.67
2023-02-14T06:34:03.696Z,17.08
2023-02-14T06:36:30.866Z,17.17
2023-02-14T06:38:58.280Z,16.95
2023-02-14T06:41:27.854Z,19.38
2023-02-14T06:43:55.269Z,17.90
2023-02-14T06:46:22.566Z,22.33
2023-02-14T06:48:50.021Z,18.20
2023-02-14T06:51:17.400Z,17.98
2023-02-14T06:53:44.840Z,18.77
2023-02-14T06:56:11.989Z,16.70
2023-02-14T06:58:39.402Z,18.10
2023-02-14T07:01:06.659Z,18.02
2023-02-14T07:03:34.104Z,17.55
2023-02-14T07:06:01.191Z,17.58
2023-02-14T07:08:28.701Z,18.00
2023-02-14T07:10:57.288Z,17.95
2023-02-14T07:13:25.415Z,16.98
2023-02-14T07:15:52.718Z,17.17
2023-02-14T07:18:20.328Z,16.70
2023-02-14T07:20:47.453Z,18.15
2023-02-14T07:23:14.972Z,18.30
2023-02-14T07:25:44.273Z,17.38
2023-02-14T07:28:11.857Z,17.75
2023-02-14T07:30:38.962Z,17.45
2023-02-14T07:33:06.420Z,16.83
2023-02-14T07:35:33.533Z,16.98
2023-02-14T07:38:01.239Z,17.25
2023-02-14T07:40:28.479Z,16.38
2023-02-14T07:42:57.597Z,18.02
2023-02-14T07:45:27.021Z,17.85
2023-02-14T07:47:55.391Z,17.17
2023-02-14T07:50:23.468Z,16.38
2023-02-14T07:52:51.697Z,18.13
2023-02-14T07:55:22.213Z,17.67
2023-02-14T07:57:49.986Z,18.10
2023-02-14T08:00:20.039Z,17.45
2023-02-14T08:02:47.580Z,17.40
2023-02-14T08:05:17.144Z,18.58
2023-02-14T08:07:44.691Z,19.20
2023-02-14T08:10:13.163Z,18.02
2023-02-14T08:12:44.582Z,18.73
2023-02-14T08:15:11.900Z,17.77
2023-02-14T08:17:39.417Z,18.92
2023-02-14T08:20:09.842Z,18.80
2023-02-14T08:22:39.477Z,23.42
2023-02-14T08:25:06.902Z,21.48
2023-02-14T08:27:34.488Z,19.00
2023-02-14T08:30:04.088Z,18.80
2023-02-14T08:32:34.030Z,20.15
2023-02-14T08:35:04.337Z,19.48
2023-02-14T08:37:31.747Z,19.00
2023-02-14T08:39:58.787Z,19.13
2023-02-14T08:42:32.263Z,21.33
2023-02-14T08:45:01.905Z,18.60
2023-02-14T08:47:34.702Z,18.30
2023-02-14T08:50:13.633Z,19.33
2023-02-14T08:52:44.414Z,18.95
2023-02-14T08:55:14.153Z,20.45
2023-02-14T08:57:41.547Z,19.63
2023-02-14T09:00:09.521Z,19.70
2023-02-14T09:02:37.211Z,19.90
2023-02-14T09:05:04.607Z,19.75
2023-02-14T09:07:34.531Z,19.20
2023-02-14T09:10:01.697Z,20.70
2023-02-14T09:12:33.527Z,19.73
2023-02-14T09:15:02.893Z,19.60
2023-02-14T09:17:32.758Z,19.60
2023-02-14T09:19:59.934Z,20.98
2023-02-14T09:22:27.300Z,19.30
2023-02-14T09:24:54.434Z,18.67
2023-02-14T09:27:21.801Z,17.80
2023-02-14T09:29:48.916Z,19.98
2023-02-14T09:32:16.785Z,19.42
2023-02-14T09:34:46.305Z,19.85
2023-02-14T09:37:14.273Z,20.40
2023-02-14T09:39:44.078Z,19.70
2023-02-14T09:42:38.755Z,19.67
2023-02-14T09:45:11.781Z,19.63
2023-02-14T09:47:51.055Z,20.33
2023-02-14T09:50:30.801Z,21.02
2023-02-14T09:53:02.046Z,20.42
2023-02-14T09:55:39.960Z,22.52
2023-02-14T09:58:31.940Z,25.08
2023-02-14T10:01:18.342Z,23.90
2023-02-14T10:03:45.794Z,22.92
2023-02-14T10:06:28.559Z,21.60
2023-02-14T10:09:17.138Z,24.52
2023-02-14T10:11:48.872Z,24.23
2023-02-14T10:14:24.241Z,19.85
2023-02-14T10:16:59.701Z,20.77
2023-02-14T10:19:40.777Z,20.20
2023-02-14T10:22:48.369Z,19.40
2023-02-14T10:25:28.325Z,21.17
2023-02-14T10:27:58.659Z,19.98
2023-02-14T10:30:36.125Z,20.95
2023-02-14T10:33:06.366Z,20.95
2023-02-14T10:35:55.542Z,20.38
2023-02-14T10:38:25.512Z,20.88
2023-02-14T10:41:20.961Z,19.75
2023-02-14T10:44:02.596Z,19.42
2023-02-14T10:47:07.622Z,20.80
2023-02-14T10:50:15.341Z,21.42
2023-02-14T10:53:13.712Z,19.88
2023-02-14T10:55:56.188Z,25.73
2023-02-14T10:58:27.892Z,20.58
2023-02-14T11:01:04.078Z,19.52
2023-02-14T11:03:34.387Z,19.73
2023-02-14T11:06:01.554Z,21.60
2023-02-14T11:08:33.526Z,18.73
2023-02-14T11:11:41.024Z,19.08
2023-02-14T11:14:28.549Z,19.40
2023-02-14T11:16:59.371Z,19.48
2023-02-14T11:20:03.135Z,20.88
2023-02-14T11:22:35.301Z,19.55
2023-02-14T11:25:17.751Z,20.98
2023-02-14T11:27:49.550Z,20.67
2023-02-14T11:30:31.350Z,19.13
2023-02-14T11:32:58.624Z,18.70
2023-02-14T11:35:28.866Z,19.15
2023-02-14T11:38:01.386Z,19.90
2023-02-14T11:40:38.573Z,20.33
2023-02-14T11:43:14.244Z,18.65
2023-02-14T11:45:47.005Z,18.75
2023-02-14T11:48:22.329Z,19.90
2023-02-14T11:51:04.358Z,20.63
2023-02-14T11:53:55.084Z,18.90
2023-02-14T11:56:42.856Z,21.27
2023-02-14T11:59:15.535Z,21.20
2023-02-14T12:01:49.425Z,33.95
2023-02-14T12:04:32.798Z,22.42
2023-02-14T12:07:22.498Z,18.75
2023-02-14T12:10:07.682Z,18.98
2023-02-14T12:12:35.719Z,19.02
2023-02-14T12:15:21.300Z,18.67
2023-02-14T12:18:02.420Z,17.98
2023-02-14T12:20:58.542Z,19.48
2023-02-14T12:24:05.436Z,17.85
2023-02-14T12:26:36.689Z,23.40
2023-02-14T12:29:17.240Z,18.98
2023-02-14T12:31:47.683Z,19.15
2023-02-14T12:34:16.587Z,17.88
2023-02-14T12:37:13.578Z,18.27
2023-02-14T12:40:11.305Z,19.45
2023-02-14T12:43:19.442Z,18.10
2023-02-14T12:46:10.597Z,17.83
2023-02-14T12:49:05.026Z,26.75
2023-02-14T12:51:47.755Z,25.83
2023-02-14T12:54:54.166Z,21.75
2023-02-14T12:57:24.694Z,19.13
2023-02-14T13:00:03.448Z,17.60
2023-02-14T13:02:49.463Z,21.25
2023-02-14T13:05:38.132Z,19.23
2023-02-14T13:08:38.218Z,19.25
2023-02-14T13:11:24.001Z,18.02
2023-02-14T13:14:10.379Z,18.88
2023-02-14T13:17:17.396Z,18.98
2023-02-14T13:20:25.852Z,18.20
2023-02-14T13:22:55.929Z,20.25
2023-02-14T13:25:27.262Z,18.48
2023-02-14T13:27:54.373Z,18.17
2023-02-14T13:30:32.306Z,21.23
2023-02-14T13:33:06.578Z,20.63
2023-02-14T13:35:35.123Z,20.95
2023-02-14T13:38:06.688Z,21.52
2023-02-14T13:40:35.814Z,22.02
2023-02-14T13:43:03.172Z,20.80
2023-02-14T13:45:30.699Z,21.50
2023-02-14T13:48:07.044Z,21.33
2023-02-14T13:50:40.018Z,21.20
2023-02-14T13:53:24.617Z,21.85
2023-02-14T13:55:52.033Z,21.20
2023-02-14T13:58:19.975Z,20.33
2023-02-14T14:00:52.591Z,20.65
2023-02-14T14:03:28.922Z,20.70
2023-02-14T14:06:13.050Z,22.00
2023-02-14T14:08:48.944Z,21.00
2023-02-14T14:11:22.653Z,19.13
2023-02-14T14:14:23.517Z,21.17
2023-02-14T14:16:58.955Z,19.95
2023-02-14T14:19:25.991Z,18.98
2023-02-14T14:22:05.687Z,20.83
2023-02-14T14:24:41.405Z,21.15
2023-02-14T14:27:29.996Z,20.80
2023-02-14T14:29:59.903Z,20.50
2023-02-14T14:32:38.679Z,20.55
2023-02-14T14:35:22.321Z,19.40
2023-02-14T14:37:54.850Z,21.35
2023-02-14T14:40:25.021Z,21.80
2023-02-14T14:42:54.009Z,21.17
2023-02-14T14:45:26.634Z,26.58
2023-02-14T14:47:57.756Z,20.85
2023-02-14T14:50:33.268Z,19.90
2023-02-14T14:53:18.129Z,20.25
2023-02-14T14:55:46.592Z,20.20
2023-02-14T14:58:33.947Z,21.63
2023-02-14T15:01:07.857Z,20.85
2023-02-14T15:03:35.231Z,23.75
2023-02-14T15:06:20.478Z,24.02
2023-02-14T15:08:49.377Z,24.15
2023-02-14T15:11:21.457Z,25.73
2023-02-14T15:13:52.968Z,26.13
2023-02-14T15:16:37.840Z,25.50
2023-02-14T15:19:16.803Z,24.42
2023-02-14T15:21:46.623Z,25.95
2023-02-14T15:24:19.388Z,23.58
2023-02-14T15:26:53.566Z,25.85
2023-02-14T15:29:25.110Z,24.83
2023-02-14T15:31:57.877Z,23.77
2023-02-14T15:34:32.674Z,23.40
2023-02-14T15:37:00.823Z,27.50
2023-02-14T15:39:51.980Z,26.20
2023-02-14T15:42:33.776Z,24.42
2023-02-14T15:45:30.683Z,25.25
2023-02-14T15:48:02.760Z,26.88
2023-02-14T15:50:33.549Z,25.48
2023-02-14T15:53:28.852Z,27.77
2023-02-14T15:56:22.425Z,27.48
2023-02-14T15:58:49.617Z,29.77
2023-02-14T16:01:20.624Z,27.67
2023-02-14T16:03:52.349Z,29.58
2023-02-14T16:06:37.362Z,28.52
2023-02-14T16:09:25.091Z,31.25
2023-02-14T16:11:57.511Z,31.80
2023-02-14T16:14:31.258Z,32.10
2023-02-14T16:17:00.527Z,32.85
2023-02-14T16:19:38.331Z,32.50
2023-02-14T16:22:09.263Z,33.00
2023-02-14T16:24:36.509Z,35.47
2023-02-14T16:27:04.983Z,33.63
2023-02-14T16:29:32.729Z,34.15
2023-02-14T16:32:17.360Z,36.25
2023-02-14T16:34:45.507Z,35.90
2023-02-14T16:37:23.515Z,36.88
2023-02-14T16:39:54.959Z,36.00
2023-02-14T16:42:22.481Z,40.58
2023-02-14T16:44:50.630Z,43.83
2023-02-14T16:47:20.182Z,43.35
2023-02-14T16:49:49.946Z,44.40
2023-02-14T16:52:21.832Z,48.38
2023-02-14T16:54:58.117Z,47.63
2023-02-14T16:57:33.594Z,44.72
2023-02-14T17:00:00.789Z,41.80
2023-02-14T17:02:28.856Z,36.92
2023-02-14T17:04:56.568Z,37.92
2023-02-14T17:07:26.624Z,36.55
2023-02-14T17:09:58.879Z,40.78
2023-02-14T17:12:33.860Z,36.60
2023-02-14T17:15:07.732Z,38.10
2023-02-14T17:17:40.397Z,36.10
2023-02-14T17:20:08.233Z,38.10
2023-02-14T17:22:37.301Z,38.83
2023-02-14T17:25:10.615Z,35.28
2023-02-14T17:27:40.564Z,37.78
2023-02-14T17:30:13.500Z,38.65
2023-02-14T17:32:41.876Z,42.30
2023-02-14T17:35:11.516Z,40.75
2023-02-14T17:37:44.044Z,43.10
2023-02-14T17:40:12.290Z,41.45
2023-02-14T17:42:44.692Z,44.20
2023-02-14T17:45:12.043Z,44.65
2023-02-14T17:47:42.084Z,47.00
2023-02-14T17:50:09.684Z,49.22
2023-02-14T17:52:37.132Z,49.90
2023-02-14T17:55:04.551Z,51.08
2023-02-14T17:57:32.416Z,50.45
2023-02-14T17:59:59.501Z,51.88
2023-02-14T18:02:27.010Z,50.58
2023-02-14T18:04:54.734Z,53.08
2023-02-14T18:07:25.115Z,52.45
2023-02-14T18:09:54.830Z,54.55
2023-02-14T18:12:24.404Z,53.50
2023-02-14T18:14:51.540Z,55.40
2023-02-14T18:17:19.155Z,54.05
2023-02-14T18:19:46.382Z,57.17
2023-02-14T18:22:16.476Z,63.53
2023-02-14T18:24:43.671Z,114.47
2023-02-14T18:27:16.098Z,66.00
2023-02-14T18:29:47.215Z,58.88
2023-02-14T18:32:15.110Z,58.17
2023-02-14T18:34:44.669Z,63.22
2023-02-14T18:37:13.722Z,65.28
2023-02-14T18:39:40.969Z,85.00
2023-02-14T18:42:10.872Z,59.10
2023-02-14T18:44:40.213Z,52.55
2023-02-14T18:47:10.372Z,64.28
2023-02-14T18:49:37.406Z,62.03
2023-02-14T18:52:04.820Z,55.97
2023-02-14T18:54:31.920Z,58.83
2023-02-14T18:57:01.974Z,60.85
2023-02-14T18:59:30.854Z,66.55
2023-02-14T19:01:59.792Z,64.38
2023-02-14T19:04:27.080Z,64.43
2023-02-14T19:06:57.025Z,69.85
2023-02-14T19:09:28.643Z,76.40
2023-02-14T19:11:56.049Z,89.63
2023-02-14T19:14:23.092Z,89.47
2023-02-14T19:16:51.225Z,90.72
2023-02-14T19:19:20.188Z,86.63
2023-02-14T19:21:47.614Z,90.45
2023-02-14T19:24:16.743Z,85.32
2023-02-14T19:26:48.346Z,89.55
2023-02-14T19:29:17.734Z,86.97
2023-02-14T19:31:50.299Z,78.88
2023-02-14T19:34:23.234Z,81.30
2023-02-14T19:36:52.640Z,75.05
2023-02-14T19:39:23.114Z,81.07
2023-02-14T19:41:51.317Z,85.75
2023-02-14T19:44:18.831Z,85.50
2023-02-14T19:46:48.959Z,79.11
2023-02-14T19:49:20.099Z,80.78
2023-02-14T19:51:50.511Z,82.38
2023-02-14T19:54:20.262Z,76.13
2023-02-14T19:56:48.046Z,81.53
2023-02-14T19:59:16.177Z,77.45
2023-02-14T20:01:50.964Z,86.90
2023-02-14T20:04:25.978Z,82.30
2023-02-14T20:06:56.529Z,83.45
2023-02-14T20:09:24.295Z,90.25
2023-02-14T20:11:54.898Z,97.30
2023-02-14T20:14:24.710Z,99.15
2023-02-14T20:16:56.180Z,94.95
2023-02-14T20:19:25.689Z,88.25
2023-02-14T20:21:53.396Z,88.72
2023-02-14T20:24:26.386Z,82.53
2023-02-14T20:26:57.195Z,81.07
2023-02-14T20:29:27.676Z,81.10
2023-02-14T20:31:59.169Z,88.45
2023-02-14T20:34:29.014Z,86.80
2023-02-14T20:36:56.597Z,79.93
2023-02-14T20:39:28.981Z,63.40
2023-02-14T20:41:56.497Z,65.68
2023-02-14T20:44:23.679Z,63.13
2023-02-14T20:46:53.469Z,78.65
2023-02-14T20:49:22.755Z,78.63
2023-02-14T20:51:51.188Z,81.00
2023-02-14T20:54:23.348Z,94.18
2023-02-14T20:56:51.163Z,97.13
2023-02-14T20:59:18.954Z,78.60
2023-02-14T21:01:48.975Z,62.70
2023-02-14T21:04:16.106Z,63.80
2023-02-14T21:06:43.532Z,72.80
2023-02-14T21:09:10.652Z,94.18
2023-02-14T21:11:40.582Z,107.28
2023-02-14T21:14:08.145Z,81.57
2023-02-14T21:16:35.563Z,97.38
2023-02-14T21:19:02.675Z,94.05
2023-02-14T21:21:35.288Z,99.57
2023-02-14T21:24:08.866Z,97.85
2023-02-14T21:26:36.315Z,93.95
2023-02-14T21:29:06.708Z,93.72
2023-02-14T21:31:35.252Z,88.97
2023-02-14T21:34:03.217Z,68.82
2023-02-14T21:36:34.573Z,87.90
2023-02-14T21:39:02.213Z,63.40
2023-02-14T21:41:30.893Z,68.60
2023-02-14T21:43:59.462Z,54.17
2023-02-14T21:46:30.579Z,53.95
2023-02-14T21:48:59.662Z,66.57
2023-02-14T21:51:27.932Z,63.00
2023-02-14T21:53:56.292Z,70.43
2023-02-14T21:56:24.070Z,76.45
2023-02-14T21:58:52.740Z,77.00
2023-02-14T22:01:26.565Z,74.53
2023-02-14T22:03:54.537Z,69.03
2023-02-14T22:06:25.608Z,58.50
2023-02-14T22:09:01.338Z,56.90
2023-02-14T22:11:29.481Z,50.40
2023-02-14T22:13:57.493Z,48.42
2023-02-14T22:16:25.266Z,45.45
2023-02-14T22:18:55.100Z,41.83
2023-02-14T22:21:24.852Z,45.53
2023-02-14T22:23:51.990Z,49.13
2023-02-14T22:26:25.824Z,46.45
2023-02-14T22:28:55.654Z,60.63
2023-02-14T22:31:24.833Z,55.28
2023-02-14T22:33:51.971Z,51.00
2023-02-14T22:36:19.909Z,43.15
2023-02-14T22:38:50.174Z,44.63
2023-02-14T22:41:20.115Z,44.55
2023-02-14T22:43:47.577Z,42.08
2023-02-14T22:46:17.714Z,42.03
2023-02-14T22:48:46.145Z,41.75
2023-02-14T22:51:21.750Z,45.65
2023-02-14T22:53:53.573Z,37.05
2023-02-14T22:56:25.663Z,33.75
2023-02-14T22:59:04.879Z,37.08
2023-02-14T23:01:34.078Z,36.90
2023-02-14T23:04:04.220Z,35.35
2023-02-14T23:06:36.077Z,37.95
2023-02-14T23:09:07.375Z,37.85
2023-02-14T23:11:36.970Z,37.10
2023-02-14T23:14:06.978Z,37.35
2023-02-14T23:16:34.486Z,36.25
2023-02-14T23:19:01.560Z,32.42
2023-02-14T23:21:29.054Z,31.77
2023-02-14T23:23:56.093Z,31.13
2023-02-14T23:26:23.616Z,29.55
2023-02-14T23:28:50.675Z,31.35
2023-02-14T23:31:18.297Z,30.25
2023-02-14T23:33:52.499Z,32.13
2023-02-14T23:36:19.940Z,32.60
2023-02-14T23:38:46.995Z,30.63
2023-02-14T23:41:14.351Z,31.30
2023-02-14T23:43:41.391Z,29.30
2023-02-14T23:46:08.792Z,29.85
2023-02-14T23:48:35.931Z,32.00
2023-02-14T23:51:03.270Z,31.27
2023-02-14T23:53:30.378Z,36.85
2023-02-14T23:56:01.828Z,29.35
2023-02-14T23:58:31.591Z,28.83
